createdAt,value
2019-05-23T00:04:46.988Z,22.8
2019-05-23T00:14:46.205Z,22.8
2019-05-23T00:24:45.427Z,22.8
2019-05-23T00:34:44.644Z,22.8
2019-05-23T00:44:43.872Z,22.8
2019-05-23T00:54:43.092Z,22.7
2019-05-23T01:04:42.299Z,22.7
2019-05-23T01:14:41.518Z,22.7
2019-05-23T01:24:40.735Z,22.7
2019-05-23T01:34:39.953Z,22.6
2019-05-23T01:44:39.225Z,22.6
2019-05-23T01:54:38.394Z,22.6
2019-05-23T02:04:37.610Z,22.6
2019-05-23T02:14:36.836Z,22.6
2019-05-23T02:24:36.056Z,22.6
2019-05-23T02:34:35.261Z,22.6
2019-05-23T02:44:34.478Z,22.6
2019-05-23T02:54:37.261Z,22.6
2019-05-23T03:04:32.914Z,22.5
2019-05-23T03:14:32.855Z,22.5
2019-05-23T03:24:32.089Z,22.5
2019-05-23T03:34:31.314Z,22.5
2019-05-23T03:44:30.521Z,22.5
2019-05-23T03:54:29.777Z,22.4
2019-05-23T04:04:28.967Z,22.5
2019-05-23T04:14:28.173Z,22.5
2019-05-23T04:24:27.403Z,22.6
2019-05-23T04:34:26.606Z,22.7
2019-05-23T04:44:25.827Z,22.8
2019-05-23T04:54:25.046Z,22.9
2019-05-23T05:04:24.274Z,23
2019-05-23T05:14:23.494Z,23.1
2019-05-23T05:24:22.709Z,23.2
2019-05-23T05:34:21.925Z,23.3
2019-05-23T05:44:21.288Z,23.4
2019-05-23T05:54:20.362Z,23.5
2019-05-23T06:04:19.581Z,23.7
2019-05-23T06:14:18.804Z,23.8
2019-05-23T06:24:18.075Z,23.9
2019-05-23T06:34:17.253Z,24
2019-05-23T06:44:16.477Z,24.1
2019-05-23T06:54:15.690Z,24.1
2019-05-23T07:04:14.917Z,24.1
2019-05-23T07:14:14.139Z,24.2
2019-05-23T07:24:13.410Z,24.1
2019-05-23T07:34:12.575Z,24.1
2019-05-23T07:44:11.833Z,24.1
2019-05-23T07:54:11.173Z,24.2
2019-05-23T08:04:20.909Z,24.1
2019-05-23T08:14:11.943Z,24.3
2019-05-23T08:24:08.693Z,24.4
2019-05-23T08:34:07.921Z,24.5
2019-05-23T08:44:10.748Z,24.4
2019-05-23T08:54:06.360Z,24.4
2019-05-23T09:04:05.641Z,24.4
2019-05-23T09:14:04.813Z,24.6
2019-05-23T09:24:04.055Z,24.5
2019-05-23T09:34:03.272Z,24.6
2019-05-23T09:44:02.499Z,24.5
2019-05-23T09:54:01.769Z,24.5
2019-05-23T10:04:00.978Z,24.5
2019-05-23T10:14:00.202Z,24.6
2019-05-23T10:23:59.498Z,24.6
2019-05-23T10:33:58.672Z,24.6
2019-05-23T10:43:57.902Z,24.7
2019-05-23T10:53:57.136Z,24.7
2019-05-23T11:03:56.408Z,24.5
2019-05-23T11:13:55.589Z,24.6
2019-05-23T11:23:54.868Z,24.6
2019-05-23T11:33:54.092Z,24.6
2019-05-23T11:43:53.264Z,24.5
2019-05-23T11:54:06.364Z,24.4
2019-05-23T12:03:51.760Z,24.8
2019-05-23T12:13:50.943Z,25
2019-05-23T12:23:50.227Z,25
2019-05-23T12:33:49.387Z,24.8
2019-05-23T12:43:48.620Z,25.2
2019-05-23T12:53:47.827Z,24.3
2019-05-23T13:03:47.053Z,24.4
2019-05-23T13:13:46.282Z,24.5
2019-05-23T13:23:45.503Z,24.4
2019-05-23T13:33:44.728Z,24.3
2019-05-23T13:43:43.949Z,24.3
2019-05-23T13:53:43.220Z,24.3
2019-05-23T14:03:42.393Z,24.2
2019-05-23T14:13:41.650Z,24.4
2019-05-23T14:23:40.843Z,24.3
